createdAt,value
2022-12-16T00:01:31.071Z,1.00
2022-12-16T00:04:00.213Z,0.80
2022-12-16T00:06:31.095Z,1.00
2022-12-16T00:09:00.888Z,1.20
2022-12-16T00:11:32.030Z,1.10
2022-12-16T00:14:00.407Z,1.10
2022-12-16T00:16:28.844Z,1.20
2022-12-16T00:18:57.269Z,0.90
2022-12-16T00:21:29.434Z,1.43
2022-12-16T00:23:58.126Z,1.60
2022-12-16T00:26:29.695Z,1.30
2022-12-16T00:28:58.195Z,1.30
2022-12-16T00:31:26.565Z,1.50
2022-12-16T00:33:57.560Z,1.27
2022-12-16T00:36:25.883Z,2.53
2022-12-16T00:38:54.409Z,2.03
2022-12-16T00:41:23.179Z,1.37
2022-12-16T00:43:52.840Z,13.13
2022-12-16T00:46:21.804Z,1.07
2022-12-16T00:48:50.314Z,1.20
2022-12-16T00:51:18.664Z,1.20
2022-12-16T00:53:47.083Z,1.40
2022-12-16T00:56:15.880Z,12.43
2022-12-16T00:58:44.170Z,1.20
2022-12-16T01:01:13.870Z,1.83
2022-12-16T01:03:42.700Z,1.13
2022-12-16T01:06:11.990Z,3.13
2022-12-16T01:08:40.445Z,1.50
2022-12-16T01:11:08.761Z,5.20
2022-12-16T01:13:37.099Z,1.37
2022-12-16T01:16:05.605Z,1.00
2022-12-16T01:18:35.289Z,1.03
2022-12-16T01:21:04.536Z,2.33
2022-12-16T01:23:33.542Z,3.50
2022-12-16T01:26:03.381Z,5.30
2022-12-16T01:28:32.201Z,1.37
2022-12-16T01:31:02.127Z,1.50
2022-12-16T01:33:30.955Z,2.77
2022-12-16T01:36:05.182Z,1.80
2022-12-16T01:38:33.713Z,1.10
2022-12-16T01:41:02.341Z,1.30
2022-12-16T01:43:32.363Z,4.23
2022-12-16T01:46:02.347Z,4.03
2022-12-16T01:48:35.455Z,1.70
2022-12-16T01:51:08.328Z,0.90
2022-12-16T01:53:37.723Z,2.17
2022-12-16T01:56:06.233Z,1.50
2022-12-16T01:58:36.880Z,1.47
2022-12-16T02:01:05.409Z,1.27
2022-12-16T02:03:36.173Z,2.43
2022-12-16T02:06:07.355Z,1.00
2022-12-16T02:08:35.874Z,1.73
2022-12-16T02:11:12.299Z,1.60
2022-12-16T02:13:48.795Z,1.03
2022-12-16T02:16:20.470Z,18.37
2022-12-16T02:18:54.277Z,1.10
2022-12-16T02:21:47.146Z,1.77
2022-12-16T02:24:32.774Z,1.57
2022-12-16T02:27:17.788Z,0.90
2022-12-16T02:30:06.584Z,3.50
2022-12-16T02:32:39.574Z,1.00
2022-12-16T02:35:11.251Z,1.20
2022-12-16T02:37:42.503Z,0.90
2022-12-16T02:40:15.344Z,2.03
2022-12-16T02:42:46.180Z,1.03
2022-12-16T02:45:17.167Z,1.10
2022-12-16T02:47:46.997Z,0.90
2022-12-16T02:50:20.226Z,1.07
2022-12-16T02:52:48.695Z,1.50
2022-12-16T02:55:17.418Z,1.40
2022-12-16T02:57:56.253Z,1.00
2022-12-16T03:00:25.282Z,1.23
2022-12-16T03:02:59.012Z,0.80
2022-12-16T03:05:29.834Z,1.20
2022-12-16T03:07:59.787Z,1.33
2022-12-16T03:10:29.757Z,1.07
2022-12-16T03:12:59.690Z,4.63
2022-12-16T03:15:28.795Z,1.33
2022-12-16T03:17:59.218Z,0.80
2022-12-16T03:20:29.041Z,0.90
2022-12-16T03:22:59.442Z,1.90
2022-12-16T03:25:28.764Z,1.00
2022-12-16T03:27:59.311Z,1.13
2022-12-16T03:30:29.353Z,0.97
2022-12-16T03:33:01.789Z,0.80
2022-12-16T03:35:33.256Z,1.27
2022-12-16T03:38:03.630Z,0.80
2022-12-16T03:40:32.786Z,0.80
2022-12-16T03:43:02.572Z,0.80
2022-12-16T03:45:32.568Z,1.07
2022-12-16T03:48:02.270Z,0.80
2022-12-16T03:50:31.941Z,0.80
2022-12-16T03:53:00.339Z,0.80
2022-12-16T03:55:28.805Z,0.80
2022-12-16T03:57:57.273Z,0.80
2022-12-16T04:00:25.897Z,1.00
2022-12-16T04:02:54.517Z,0.90
2022-12-16T04:05:24.434Z,0.80
2022-12-16T04:07:54.385Z,0.80
2022-12-16T04:10:39.630Z,0.90
2022-12-16T04:13:25.368Z,1.10
2022-12-16T04:16:11.440Z,0.83
2022-12-16T04:18:58.621Z,0.77
2022-12-16T04:21:45.995Z,1.20
2022-12-16T04:24:23.998Z,1.00
2022-12-16T04:27:15.313Z,0.90
2022-12-16T04:29:58.236Z,1.17
2022-12-16T04:32:26.938Z,0.90
2022-12-16T04:34:54.260Z,0.90
2022-12-16T04:37:41.700Z,0.80
2022-12-16T04:40:27.875Z,0.90
2022-12-16T04:43:13.736Z,0.83
2022-12-16T04:45:59.700Z,0.80
2022-12-16T04:48:45.741Z,0.80
2022-12-16T04:51:31.879Z,0.90
2022-12-16T04:54:18.974Z,0.80
2022-12-16T04:57:05.030Z,0.80
2022-12-16T04:59:50.733Z,0.80
2022-12-16T05:02:36.478Z,0.80
2022-12-16T05:05:22.524Z,0.80
2022-12-16T05:08:08.318Z,1.27
2022-12-16T05:10:55.820Z,1.17
2022-12-16T05:13:41.605Z,1.27
2022-12-16T05:16:27.557Z,1.30
2022-12-16T05:19:13.408Z,1.97
2022-12-16T05:21:59.394Z,0.90
2022-12-16T05:24:49.775Z,0.80
2022-12-16T05:27:40.019Z,0.90
2022-12-16T05:30:31.979Z,1.63
2022-12-16T05:33:15.734Z,0.80
2022-12-16T05:36:01.735Z,1.17
2022-12-16T05:38:47.765Z,0.90
2022-12-16T05:41:29.944Z,0.90
2022-12-16T05:44:17.081Z,0.80
2022-12-16T05:47:03.420Z,0.90
2022-12-16T05:49:49.349Z,0.90
2022-12-16T05:52:35.237Z,1.67
2022-12-16T05:55:21.053Z,0.80
2022-12-16T05:58:08.138Z,1.63
2022-12-16T06:00:55.642Z,0.80
2022-12-16T06:03:42.107Z,0.90
2022-12-16T06:06:28.020Z,2.03
2022-12-16T06:09:13.862Z,1.10
2022-12-16T06:11:59.671Z,1.00
2022-12-16T06:14:45.694Z,1.60
2022-12-16T06:17:47.394Z,1.23
2022-12-16T06:20:33.177Z,1.00
2022-12-16T06:23:24.012Z,1.07
2022-12-16T06:26:11.540Z,1.27
2022-12-16T06:28:57.356Z,2.20
2022-12-16T06:31:43.017Z,0.93
2022-12-16T06:34:30.298Z,1.13
2022-12-16T06:37:21.753Z,1.43
2022-12-16T06:40:07.741Z,1.10
2022-12-16T06:42:53.450Z,0.90
2022-12-16T06:45:39.379Z,0.97
2022-12-16T06:48:25.731Z,1.13
2022-12-16T06:51:13.185Z,1.00
2022-12-16T06:53:58.990Z,0.83
2022-12-16T06:56:45.084Z,2.03
2022-12-16T06:59:30.802Z,0.80
2022-12-16T07:02:16.835Z,0.90
2022-12-16T07:05:02.608Z,0.80
2022-12-16T07:07:49.827Z,0.80
2022-12-16T07:10:35.561Z,0.90
2022-12-16T07:13:21.544Z,0.83
2022-12-16T07:16:07.614Z,0.90
2022-12-16T07:18:56.893Z,0.80
2022-12-16T07:21:42.728Z,1.20
2022-12-16T07:24:30.045Z,0.80
2022-12-16T07:27:16.238Z,0.90
2022-12-16T07:30:02.059Z,1.47
2022-12-16T07:32:51.043Z,0.90
2022-12-16T07:35:37.072Z,0.80
2022-12-16T07:38:25.209Z,0.90
2022-12-16T07:41:20.942Z,0.87
2022-12-16T07:44:06.811Z,1.87
2022-12-16T07:46:52.581Z,1.73
2022-12-16T07:49:38.276Z,2.20
2022-12-16T07:52:24.523Z,1.73
2022-12-16T07:55:10.553Z,0.80
2022-12-16T07:57:57.933Z,9.73
2022-12-16T08:00:43.931Z,1.17
2022-12-16T08:03:33.605Z,0.90
2022-12-16T08:06:19.632Z,9.53
2022-12-16T08:09:05.344Z,1.53
2022-12-16T08:11:51.328Z,11.13
2022-12-16T08:14:38.509Z,1.03
2022-12-16T08:17:32.942Z,1.40
2022-12-16T08:20:18.691Z,1.40
2022-12-16T08:23:04.710Z,1.53
2022-12-16T08:25:51.919Z,1.87
2022-12-16T08:28:44.347Z,1.80
2022-12-16T08:31:31.880Z,0.80
2022-12-16T08:34:23.217Z,1.30
2022-12-16T08:37:09.366Z,1.43
2022-12-16T08:40:25.709Z,1.53
2022-12-16T08:43:00.775Z,2.33
2022-12-16T08:45:50.216Z,10.83
2022-12-16T08:48:37.628Z,1.57
2022-12-16T08:51:23.958Z,1.07
2022-12-16T08:54:09.793Z,1.60
2022-12-16T08:56:59.333Z,1.00
2022-12-16T08:59:48.167Z,2.87
2022-12-16T09:02:36.831Z,1.03
2022-12-16T09:05:27.892Z,1.40
2022-12-16T09:08:17.632Z,1.20
2022-12-16T09:11:03.324Z,0.97
2022-12-16T09:13:49.255Z,1.13
2022-12-16T09:16:35.130Z,3.10
2022-12-16T09:19:32.258Z,1.33
2022-12-16T09:22:19.414Z,3.03
2022-12-16T09:25:05.653Z,2.03
2022-12-16T09:27:51.600Z,2.07
2022-12-16T09:30:37.668Z,1.03
2022-12-16T09:33:23.648Z,1.43
2022-12-16T09:36:09.831Z,0.80
2022-12-16T09:38:57.341Z,0.90
2022-12-16T09:41:47.933Z,1.33
2022-12-16T09:44:38.370Z,1.00
2022-12-16T09:47:29.948Z,1.07
2022-12-16T09:50:16.166Z,3.07
2022-12-16T09:53:04.197Z,3.97
2022-12-16T09:55:52.973Z,3.57
2022-12-16T09:58:40.328Z,0.80
2022-12-16T10:01:26.467Z,1.67
2022-12-16T10:04:14.218Z,1.87
2022-12-16T10:07:03.840Z,1.47
2022-12-16T10:09:52.314Z,1.10
2022-12-16T10:12:44.644Z,2.27
2022-12-16T10:15:39.199Z,1.30
2022-12-16T10:18:31.304Z,2.50
2022-12-16T10:21:20.415Z,1.60
2022-12-16T10:24:09.709Z,5.80
2022-12-16T10:27:01.630Z,1.40
2022-12-16T10:29:50.534Z,1.77
2022-12-16T10:32:38.679Z,1.20
2022-12-16T10:35:36.584Z,1.37
2022-12-16T10:38:23.030Z,0.70
2022-12-16T10:41:10.641Z,1.33
2022-12-16T10:43:59.136Z,1.13
2022-12-16T10:46:48.956Z,1.10
2022-12-16T10:49:35.886Z,2.37
2022-12-16T10:52:21.745Z,1.80
2022-12-16T10:55:10.801Z,2.03
2022-12-16T10:58:01.865Z,1.87
2022-12-16T11:01:02.774Z,2.03
2022-12-16T11:03:50.605Z,1.63
2022-12-16T11:06:42.269Z,1.53
2022-12-16T11:09:35.615Z,1.50
2022-12-16T11:12:33.430Z,0.80
2022-12-16T11:15:39.912Z,1.10
2022-12-16T11:18:26.341Z,1.00
2022-12-16T11:21:40.255Z,1.60
2022-12-16T11:24:41.895Z,1.73
2022-12-16T11:27:32.940Z,1.67
2022-12-16T11:30:20.078Z,0.90
2022-12-16T11:33:08.083Z,2.27
2022-12-16T11:35:57.644Z,1.07
2022-12-16T11:38:46.993Z,1.67
2022-12-16T11:41:42.191Z,2.70
2022-12-16T11:44:33.624Z,1.73
2022-12-16T11:47:19.372Z,1.80
2022-12-16T11:50:05.262Z,1.13
2022-12-16T11:52:51.629Z,1.03
2022-12-16T11:56:05.434Z,1.13
2022-12-16T11:58:53.298Z,1.00
2022-12-16T12:01:45.678Z,1.43
2022-12-16T12:04:35.178Z,1.00
2022-12-16T12:07:29.230Z,1.00
2022-12-16T12:10:22.862Z,1.00
2022-12-16T12:13:15.108Z,1.27
2022-12-16T12:16:03.774Z,1.20
2022-12-16T12:18:57.677Z,0.87
2022-12-16T12:21:45.046Z,1.00
2022-12-16T12:24:43.126Z,1.10
2022-12-16T12:27:37.236Z,0.87
2022-12-16T12:30:25.532Z,1.57
2022-12-16T12:33:16.417Z,5.50
2022-12-16T12:36:08.988Z,1.10
2022-12-16T12:38:57.945Z,1.10
2022-12-16T12:41:46.326Z,0.83
2022-12-16T12:44:48.760Z,1.90
2022-12-16T12:47:36.942Z,2.07
2022-12-16T12:50:25.676Z,0.90
2022-12-16T12:53:31.489Z,0.97
2022-12-16T12:56:21.998Z,0.80
2022-12-16T12:59:11.354Z,1.60
2022-12-16T13:02:02.519Z,1.47
2022-12-16T13:04:53.481Z,1.20
2022-12-16T13:07:39.931Z,1.10
2022-12-16T13:10:33.971Z,1.23
2022-12-16T13:13:40.719Z,1.60
2022-12-16T13:16:30.006Z,1.93
2022-12-16T13:19:36.463Z,1.60
2022-12-16T13:22:33.326Z,1.80
2022-12-16T13:25:24.269Z,1.27
2022-12-16T13:28:14.524Z,1.87
2022-12-16T13:31:21.727Z,1.50
2022-12-16T13:34:24.682Z,1.00
2022-12-16T13:37:20.824Z,0.80
2022-12-16T13:40:29.201Z,1.60
2022-12-16T13:43:18.301Z,0.80
2022-12-16T13:46:23.133Z,0.90
2022-12-16T13:49:21.872Z,1.30
2022-12-16T13:52:20.335Z,0.97
2022-12-16T13:55:24.400Z,2.30
2022-12-16T13:58:22.843Z,0.90
2022-12-16T14:01:24.264Z,1.23
2022-12-16T14:04:17.658Z,0.90
2022-12-16T14:07:04.133Z,1.00
2022-12-16T14:09:54.552Z,1.07
2022-12-16T14:13:04.294Z,0.80
2022-12-16T14:15:55.674Z,5.90
2022-12-16T14:18:51.492Z,0.80
2022-12-16T14:21:48.407Z,0.80
2022-12-16T14:28:05.028Z,0.80
2022-12-16T14:30:52.436Z,0.87
2022-12-16T14:34:04.922Z,0.80
2022-12-16T14:37:06.571Z,0.80
2022-12-16T14:39:58.793Z,1.23
2022-12-16T14:43:07.181Z,0.90
2022-12-16T14:45:58.459Z,0.70
2022-12-16T14:48:49.798Z,0.90
2022-12-16T14:51:46.939Z,0.83
2022-12-16T14:54:46.223Z,0.70
2022-12-16T14:58:27.545Z,0.80
2022-12-16T15:01:46.660Z,0.80
2022-12-16T15:04:34.566Z,0.80
2022-12-16T15:07:31.172Z,0.80
2022-12-16T15:11:01.619Z,0.70
2022-12-16T15:26:19.308Z,0.80
2022-12-16T15:44:23.969Z,0.70
2022-12-16T15:50:59.623Z,0.70
2022-12-16T15:54:11.411Z,1.47
2022-12-16T16:00:49.776Z,0.80
2022-12-16T16:03:47.280Z,0.80
2022-12-16T16:06:45.418Z,0.80
2022-12-16T16:09:34.353Z,0.80
2022-12-16T16:12:35.491Z,1.53
2022-12-16T16:15:30.688Z,0.70
2022-12-16T16:18:50.941Z,0.80
2022-12-16T16:22:23.187Z,1.20
2022-12-16T16:25:48.079Z,1.10
2022-12-16T16:28:51.771Z,1.67
2022-12-16T16:31:43.431Z,1.43
2022-12-16T16:34:51.067Z,0.80
2022-12-16T16:38:07.824Z,0.97
2022-12-16T16:44:03.800Z,1.37
2022-12-16T16:46:59.053Z,0.80
2022-12-16T16:49:54.578Z,0.80
2022-12-16T16:52:54.059Z,1.57
2022-12-16T16:55:50.834Z,0.80
2022-12-16T16:58:47.124Z,0.80
2022-12-16T17:01:37.706Z,0.80
2022-12-16T17:04:33.244Z,1.50
2022-12-16T17:07:24.341Z,1.83
2022-12-16T17:10:19.491Z,1.10
2022-12-16T17:13:05.561Z,0.80
2022-12-16T17:15:56.389Z,0.93
2022-12-16T17:18:46.654Z,0.97
2022-12-16T17:21:34.877Z,4.20
2022-12-16T17:24:24.327Z,1.27
2022-12-16T17:27:10.554Z,2.23
2022-12-16T17:29:59.176Z,0.90
2022-12-16T17:32:49.695Z,0.90
2022-12-16T17:35:36.026Z,3.13
2022-12-16T17:38:22.577Z,0.90
2022-12-16T17:41:11.292Z,1.00
2022-12-16T17:43:57.836Z,1.30
2022-12-16T17:46:45.893Z,1.10
2022-12-16T17:49:35.931Z,0.90
2022-12-16T17:52:28.014Z,2.67
2022-12-16T17:55:14.445Z,0.80
2022-12-16T17:58:05.295Z,1.73
2022-12-16T18:00:51.810Z,7.10
2022-12-16T18:03:38.442Z,2.43
2022-12-16T18:06:36.150Z,2.90
2022-12-16T18:09:22.626Z,1.00
2022-12-16T18:12:12.431Z,1.13
2022-12-16T18:15:03.851Z,1.63
2022-12-16T18:17:50.250Z,1.53
2022-12-16T18:20:52.314Z,2.40
2022-12-16T18:23:42.838Z,0.90
2022-12-16T18:26:31.721Z,2.50
2022-12-16T18:29:18.312Z,1.00
2022-12-16T18:32:04.599Z,0.80
2022-12-16T18:34:51.619Z,3.40
2022-12-16T18:38:02.141Z,0.93
2022-12-16T18:40:49.920Z,0.80
2022-12-16T18:43:41.126Z,1.00
2022-12-16T18:46:30.723Z,1.60
2022-12-16T18:49:21.979Z,1.30
2022-12-16T18:55:20.083Z,2.40
2022-12-16T18:58:20.987Z,3.83
2022-12-16T19:01:20.040Z,3.97
2022-12-16T19:04:13.892Z,0.90
2022-12-16T19:07:00.226Z,4.83
2022-12-16T19:09:46.559Z,2.80
2022-12-16T19:12:32.480Z,1.00
2022-12-16T19:15:20.076Z,0.97
2022-12-16T19:18:06.131Z,0.90
2022-12-16T19:20:52.025Z,1.10
2022-12-16T19:23:38.181Z,1.90
2022-12-16T19:26:24.565Z,2.03
2022-12-16T19:29:10.853Z,5.67
2022-12-16T19:31:58.459Z,3.37
2022-12-16T19:34:44.270Z,1.20
2022-12-16T19:37:30.173Z,6.47
2022-12-16T19:40:22.419Z,1.03
2022-12-16T19:43:08.104Z,1.47
2022-12-16T19:45:56.474Z,1.47
2022-12-16T19:48:47.224Z,1.33
2022-12-16T19:51:33.197Z,1.63
2022-12-16T19:54:19.220Z,3.80
2022-12-16T19:57:05.103Z,2.70
2022-12-16T19:59:51.715Z,1.10
2022-12-16T20:02:37.651Z,1.30
2022-12-16T20:05:28.496Z,1.93
2022-12-16T20:08:14.318Z,2.20
2022-12-16T20:11:00.451Z,6.00
2022-12-16T20:13:49.225Z,7.53
2022-12-16T20:16:35.060Z,3.57
2022-12-16T20:19:21.147Z,2.80
2022-12-16T20:25:14.497Z,0.90
2022-12-16T20:28:00.651Z,1.20
2022-12-16T20:30:46.335Z,1.53
2022-12-16T20:33:33.554Z,2.20
2022-12-16T20:36:20.416Z,2.60
2022-12-16T20:39:07.454Z,1.47
2022-12-16T20:44:59.550Z,2.23
2022-12-16T20:47:45.307Z,1.20
2022-12-16T20:50:31.090Z,4.00
2022-12-16T20:53:17.027Z,1.50
2022-12-16T20:56:04.138Z,1.10
2022-12-16T20:58:51.852Z,1.33
2022-12-16T21:01:41.546Z,1.17
2022-12-16T21:04:27.616Z,1.77
2022-12-16T21:07:13.630Z,2.37
2022-12-16T21:09:59.699Z,0.90
2022-12-16T21:12:47.207Z,0.97
2022-12-16T21:15:33.025Z,1.23
2022-12-16T21:18:19.438Z,1.00
2022-12-16T21:21:10.677Z,1.43
2022-12-16T21:23:56.748Z,1.83
2022-12-16T21:26:42.522Z,5.67
2022-12-16T21:29:30.054Z,1.40
2022-12-16T21:32:15.716Z,1.47
2022-12-16T21:34:57.904Z,9.73
2022-12-16T21:37:43.786Z,6.37
2022-12-16T21:40:29.897Z,6.27
2022-12-16T21:43:15.776Z,12.47
2022-12-16T21:46:17.767Z,7.17
2022-12-16T21:49:03.513Z,2.90
2022-12-16T21:51:49.301Z,4.73
2022-12-16T21:54:35.073Z,1.60
2022-12-16T21:57:20.970Z,5.33
2022-12-16T22:00:06.619Z,2.63
2022-12-16T22:02:53.784Z,2.50
2022-12-16T22:05:42.704Z,3.30
2022-12-16T22:08:29.451Z,1.40
2022-12-16T22:11:15.570Z,1.17
2022-12-16T22:14:01.410Z,2.60
2022-12-16T22:16:47.135Z,3.03
2022-12-16T22:19:34.526Z,2.90
2022-12-16T22:22:20.303Z,3.57
2022-12-16T22:25:12.561Z,2.70
2022-12-16T22:28:00.096Z,2.80
2022-12-16T22:30:45.956Z,3.23
2022-12-16T22:33:31.835Z,1.33
2022-12-16T22:36:20.982Z,1.00
2022-12-16T22:39:06.928Z,3.90
2022-12-16T22:41:53.234Z,5.10
2022-12-16T22:44:39.501Z,5.77
2022-12-16T22:47:25.435Z,15.10
2022-12-16T22:50:11.487Z,4.20
2022-12-16T22:52:55.063Z,5.13
2022-12-16T22:55:40.982Z,7.53
2022-12-16T22:58:27.174Z,3.53
2022-12-16T23:01:12.246Z,2.33
2022-12-16T23:03:58.217Z,3.53
2022-12-16T23:06:44.262Z,3.93
2022-12-16T23:09:31.781Z,3.50
2022-12-16T23:12:17.790Z,5.50
2022-12-16T23:15:03.545Z,10.67
2022-12-16T23:17:49.488Z,6.10
2022-12-16T23:20:35.290Z,28.70
2022-12-16T23:23:21.259Z,29.40
2022-12-16T23:26:15.856Z,13.33
2022-12-16T23:29:02.181Z,1.57
2022-12-16T23:31:48.268Z,5.70
2022-12-16T23:34:34.095Z,24.43
2022-12-16T23:37:20.113Z,6.43
2022-12-16T23:40:06.117Z,117.63
2022-12-16T23:42:53.261Z,258.80
2022-12-16T23:45:41.972Z,264.57
2022-12-16T23:48:29.470Z,174.17
2022-12-16T23:51:15.344Z,312.43
2022-12-16T23:54:01.435Z,209.40
2022-12-16T23:56:47.506Z,364.13
2022-12-16T23:59:34.770Z,384.90
